sensor_id;sensor_type;location;lat;lon;timestamp;temperature;humidity
13405;DHT22;6773;51.192;7.024;2022-10-15T00:01:12;13.80;99.90
13405;DHT22;6773;51.192;7.024;2022-10-15T00:03:40;13.80;99.90
13405;DHT22;6773;51.192;7.024;2022-10-15T00:06:17;13.80;99.90
13405;DHT22;6773;51.192;7.024;2022-10-15T00:08:44;13.80;99.90
13405;DHT22;6773;51.192;7.024;2022-10-15T00:11:16;13.80;99.90
13405;DHT22;6773;51.192;7.024;2022-10-15T00:13:42;13.80;99.90
13405;DHT22;6773;51.192;7.024;2022-10-15T00:16:11;13.80;99.90
13405;DHT22;6773;51.192;7.024;2022-10-15T00:18:37;13.80;99.90
13405;DHT22;6773;51.192;7.024;2022-10-15T00:21:08;13.80;99.90
13405;DHT22;6773;51.192;7.024;2022-10-15T00:23:35;13.80;99.90
13405;DHT22;6773;51.192;7.024;2022-10-15T00:26:13;13.70;99.90
13405;DHT22;6773;51.192;7.024;2022-10-15T00:28:38;13.70;99.90
13405;DHT22;6773;51.192;7.024;2022-10-15T00:31:10;13.70;99.90
13405;DHT22;6773;51.192;7.024;2022-10-15T00:33:37;13.70;99.90
13405;DHT22;6773;51.192;7.024;2022-10-15T00:36:09;13.70;99.90
13405;DHT22;6773;51.192;7.024;2022-10-15T00:41:04;13.70;99.90
13405;DHT22;6773;51.192;7.024;2022-10-15T00:43:45;13.60;99.90
13405;DHT22;6773;51.192;7.024;2022-10-15T00:46:31;13.60;99.90
13405;DHT22;6773;51.192;7.024;2022-10-15T00:49:04;13.60;99.90
13405;DHT22;6773;51.192;7.024;2022-10-15T00:51:36;13.60;99.90
13405;DHT22;6773;51.192;7.024;2022-10-15T00:54:03;13.60;99.90
13405;DHT22;6773;51.192;7.024;2022-10-15T00:56:30;13.60;99.90
13405;DHT22;6773;51.192;7.024;2022-10-15T00:58:57;13.60;99.90
13405;DHT22;6773;51.192;7.024;2022-10-15T01:01:24;13.60;99.90
13405;DHT22;6773;51.192;7.024;2022-10-15T01:03:51;13.50;99.90
13405;DHT22;6773;51.192;7.024;2022-10-15T01:06:17;13.50;99.90
13405;DHT22;6773;51.192;7.024;2022-10-15T01:08:44;13.50;99.90
13405;DHT22;6773;51.192;7.024;2022-10-15T01:11:37;13.50;99.90
13405;DHT22;6773;51.192;7.024;2022-10-15T01:17:19;13.40;99.90
13405;DHT22;6773;51.192;7.024;2022-10-15T01:20:29;13.40;99.90
13405;DHT22;6773;51.192;7.024;2022-10-15T01:28:41;13.40;99.90
13405;DHT22;6773;51.192;7.024;2022-10-15T01:39:37;13.40;99.90
13405;DHT22;6773;51.192;7.024;2022-10-15T01:42:12;13.40;99.90
13405;DHT22;6773;51.192;7.024;2022-10-15T01:44:43;13.40;99.90
13405;DHT22;6773;51.192;7.024;2022-10-15T01:47:35;13.40;99.90
13405;DHT22;6773;51.192;7.024;2022-10-15T01:50:03;13.40;99.90
13405;DHT22;6773;51.192;7.024;2022-10-15T01:52:35;13.40;99.90
13405;DHT22;6773;51.192;7.024;2022-10-15T01:55:03;13.40;99.90
13405;DHT22;6773;51.192;7.024;2022-10-15T01:57:30;13.40;99.90
13405;DHT22;6773;51.192;7.024;2022-10-15T01:59:57;13.40;99.90
13405;DHT22;6773;51.192;7.024;2022-10-15T02:02:23;13.40;99.90
13405;DHT22;6773;51.192;7.024;2022-10-15T02:04:49;13.40;99.90
13405;DHT22;6773;51.192;7.024;2022-10-15T02:07:35;13.40;99.90
13405;DHT22;6773;51.192;7.024;2022-10-15T02:10:13;13.40;99.90
13405;DHT22;6773;51.192;7.024;2022-10-15T02:20:58;13.40;99.90
13405;DHT22;6773;51.192;7.024;2022-10-15T02:23:48;13.40;99.90
13405;DHT22;6773;51.192;7.024;2022-10-15T02:26:15;13.40;99.90
13405;DHT22;6773;51.192;7.024;2022-10-15T02:28:44;13.40;99.90
13405;DHT22;6773;51.192;7.024;2022-10-15T02:31:13;13.40;99.90
13405;DHT22;6773;51.192;7.024;2022-10-15T02:33:41;13.40;99.90
13405;DHT22;6773;51.192;7.024;2022-10-15T02:36:07;13.30;99.90
13405;DHT22;6773;51.192;7.024;2022-10-15T02:38:34;13.40;99.90
13405;DHT22;6773;51.192;7.024;2022-10-15T02:41:02;13.40;99.90
13405;DHT22;6773;51.192;7.024;2022-10-15T02:43:28;13.40;99.90
13405;DHT22;6773;51.192;7.024;2022-10-15T02:45:54;13.40;99.90
13405;DHT22;6773;51.192;7.024;2022-10-15T02:48:20;13.40;99.90
13405;DHT22;6773;51.192;7.024;2022-10-15T02:50:45;13.40;99.90
13405;DHT22;6773;51.192;7.024;2022-10-15T02:53:11;13.40;99.90
13405;DHT22;6773;51.192;7.024;2022-10-15T02:55:36;13.40;99.90
13405;DHT22;6773;51.192;7.024;2022-10-15T02:58:02;13.40;99.90
13405;DHT22;6773;51.192;7.024;2022-10-15T03:00:28;13.40;99.90
13405;DHT22;6773;51.192;7.024;2022-10-15T03:02:53;13.40;99.90
13405;DHT22;6773;51.192;7.024;2022-10-15T03:05:19;13.40;99.90
13405;DHT22;6773;51.192;7.024;2022-10-15T03:07:45;13.40;99.90
13405;DHT22;6773;51.192;7.024;2022-10-15T03:10:10;13.40;99.90
13405;DHT22;6773;51.192;7.024;2022-10-15T03:12:36;13.40;99.90
13405;DHT22;6773;51.192;7.024;2022-10-15T03:15:01;13.30;99.90
13405;DHT22;6773;51.192;7.024;2022-10-15T03:17:27;13.30;99.90
13405;DHT22;6773;51.192;7.024;2022-10-15T03:19:53;13.30;99.90
13405;DHT22;6773;51.192;7.024;2022-10-15T03:22:18;13.30;99.90
13405;DHT22;6773;51.192;7.024;2022-10-15T03:24:44;13.30;99.90
13405;DHT22;6773;51.192;7.024;2022-10-15T03:27:09;13.30;99.90
13405;DHT22;6773;51.192;7.024;2022-10-15T03:29:35;13.30;99.90
13405;DHT22;6773;51.192;7.024;2022-10-15T03:32:00;13.30;99.90
13405;DHT22;6773;51.192;7.024;2022-10-15T03:39:18;13.30;99.90
13405;DHT22;6773;51.192;7.024;2022-10-15T03:44:10;13.30;99.90
13405;DHT22;6773;51.192;7.024;2022-10-15T03:46:35;13.20;99.90
13405;DHT22;6773;51.192;7.024;2022-10-15T03:51:27;13.20;99.90
13405;DHT22;6773;51.192;7.024;2022-10-15T03:53:53;13.20;99.90
13405;DHT22;6773;51.192;7.024;2022-10-15T03:56:19;13.30;99.90
13405;DHT22;6773;51.192;7.024;2022-10-15T03:58:45;13.30;99.90
13405;DHT22;6773;51.192;7.024;2022-10-15T04:01:13;13.30;99.90
13405;DHT22;6773;51.192;7.024;2022-10-15T04:03:39;13.30;99.90
13405;DHT22;6773;51.192;7.024;2022-10-15T04:08:31;13.30;99.90
13405;DHT22;6773;51.192;7.024;2022-10-15T04:13:24;13.30;99.90
13405;DHT22;6773;51.192;7.024;2022-10-15T04:15:49;13.30;99.90
13405;DHT22;6773;51.192;7.024;2022-10-15T04:18:15;13.30;99.90
13405;DHT22;6773;51.192;7.024;2022-10-15T04:20:41;13.30;99.90
13405;DHT22;6773;51.192;7.024;2022-10-15T04:23:07;13.30;99.90
13405;DHT22;6773;51.192;7.024;2022-10-15T04:27:59;13.20;99.90
13405;DHT22;6773;51.192;7.024;2022-10-15T04:30:25;13.30;99.90
13405;DHT22;6773;51.192;7.024;2022-10-15T04:32:51;13.30;99.90
13405;DHT22;6773;51.192;7.024;2022-10-15T04:35:17;13.20;99.90
13405;DHT22;6773;51.192;7.024;2022-10-15T04:37:42;13.20;99.90
13405;DHT22;6773;51.192;7.024;2022-10-15T04:40:08;13.20;99.90
13405;DHT22;6773;51.192;7.024;2022-10-15T04:42:34;13.20;99.90
13405;DHT22;6773;51.192;7.024;2022-10-15T04:45:00;13.20;99.90
13405;DHT22;6773;51.192;7.024;2022-10-15T04:47:25;13.20;99.90
13405;DHT22;6773;51.192;7.024;2022-10-15T04:49:51;13.20;99.90
13405;DHT22;6773;51.192;7.024;2022-10-15T04:52:17;13.20;99.90
13405;DHT22;6773;51.192;7.024;2022-10-15T04:54:42;13.20;99.90
13405;DHT22;6773;51.192;7.024;2022-10-15T04:57:08;13.20;99.90
13405;DHT22;6773;51.192;7.024;2022-10-15T05:01:59;13.20;99.90
13405;DHT22;6773;51.192;7.024;2022-10-15T05:04:25;13.20;99.90
13405;DHT22;6773;51.192;7.024;2022-10-15T05:06:50;13.20;99.90
13405;DHT22;6773;51.192;7.024;2022-10-15T05:09:16;13.20;99.90
13405;DHT22;6773;51.192;7.024;2022-10-15T05:11:41;13.20;99.90
13405;DHT22;6773;51.192;7.024;2022-10-15T05:14:07;13.10;99.90
13405;DHT22;6773;51.192;7.024;2022-10-15T05:16:33;13.10;99.90
13405;DHT22;6773;51.192;7.024;2022-10-15T05:19:01;13.10;99.90
13405;DHT22;6773;51.192;7.024;2022-10-15T05:21:27;13.10;99.90
13405;DHT22;6773;51.192;7.024;2022-10-15T05:23:52;13.10;99.90
13405;DHT22;6773;51.192;7.024;2022-10-15T05:26:20;13.10;99.90
13405;DHT22;6773;51.192;7.024;2022-10-15T05:28:47;13.00;99.90
13405;DHT22;6773;51.192;7.024;2022-10-15T05:31:18;13.10;99.90
13405;DHT22;6773;51.192;7.024;2022-10-15T05:33:45;13.10;99.90
13405;DHT22;6773;51.192;7.024;2022-10-15T05:36:28;13.10;99.90
13405;DHT22;6773;51.192;7.024;2022-10-15T05:38:56;13.00;99.90
13405;DHT22;6773;51.192;7.024;2022-10-15T05:41:22;13.00;99.90
13405;DHT22;6773;51.192;7.024;2022-10-15T05:43:49;13.00;99.90
13405;DHT22;6773;51.192;7.024;2022-10-15T05:46:16;13.00;99.90
13405;DHT22;6773;51.192;7.024;2022-10-15T05:48:42;13.00;99.90
13405;DHT22;6773;51.192;7.024;2022-10-15T05:51:10;13.00;99.90
13405;DHT22;6773;51.192;7.024;2022-10-15T05:53:37;13.00;99.90
13405;DHT22;6773;51.192;7.024;2022-10-15T05:56:03;13.00;99.90
13405;DHT22;6773;51.192;7.024;2022-10-15T06:00:57;12.90;99.90
13405;DHT22;6773;51.192;7.024;2022-10-15T06:03:23;12.90;99.90
13405;DHT22;6773;51.192;7.024;2022-10-15T06:05:49;13.00;99.90
13405;DHT22;6773;51.192;7.024;2022-10-15T06:10:41;13.00;99.90
13405;DHT22;6773;51.192;7.024;2022-10-15T06:13:07;13.00;99.90
13405;DHT22;6773;51.192;7.024;2022-10-15T06:17:59;13.00;99.90
13405;DHT22;6773;51.192;7.024;2022-10-15T06:20:26;13.00;99.90
13405;DHT22;6773;51.192;7.024;2022-10-15T06:22:58;13.00;99.90
13405;DHT22;6773;51.192;7.024;2022-10-15T06:25:25;13.00;99.90
13405;DHT22;6773;51.192;7.024;2022-10-15T06:27:50;13.00;99.90
13405;DHT22;6773;51.192;7.024;2022-10-15T06:30:16;13.10;99.90
13405;DHT22;6773;51.192;7.024;2022-10-15T06:32:49;13.10;99.90
13405;DHT22;6773;51.192;7.024;2022-10-15T06:35:16;13.10;99.90
13405;DHT22;6773;51.192;7.024;2022-10-15T06:37:41;13.10;99.90
13405;DHT22;6773;51.192;7.024;2022-10-15T06:40:08;13.10;99.90
13405;DHT22;6773;51.192;7.024;2022-10-15T06:42:35;13.10;99.90
13405;DHT22;6773;51.192;7.024;2022-10-15T06:45:00;13.10;99.90
13405;DHT22;6773;51.192;7.024;2022-10-15T06:49:52;13.10;99.90
13405;DHT22;6773;51.192;7.024;2022-10-15T06:52:17;13.10;99.90
13405;DHT22;6773;51.192;7.024;2022-10-15T06:54:43;13.10;99.90
13405;DHT22;6773;51.192;7.024;2022-10-15T06:57:09;13.20;99.90
13405;DHT22;6773;51.192;7.024;2022-10-15T06:59:34;13.20;99.90
13405;DHT22;6773;51.192;7.024;2022-10-15T07:02:00;13.20;99.90
13405;DHT22;6773;51.192;7.024;2022-10-15T07:04:26;13.20;99.90
13405;DHT22;6773;51.192;7.024;2022-10-15T07:06:51;13.20;99.90
13405;DHT22;6773;51.192;7.024;2022-10-15T07:09:17;13.20;99.90
13405;DHT22;6773;51.192;7.024;2022-10-15T07:14:11;13.20;99.90
13405;DHT22;6773;51.192;7.024;2022-10-15T07:16:37;13.30;99.90
13405;DHT22;6773;51.192;7.024;2022-10-15T07:21:30;13.30;99.90
13405;DHT22;6773;51.192;7.024;2022-10-15T07:23:55;13.40;99.90
13405;DHT22;6773;51.192;7.024;2022-10-15T07:26:21;13.40;99.90
13405;DHT22;6773;51.192;7.024;2022-10-15T07:28:47;13.40;99.90
13405;DHT22;6773;51.192;7.024;2022-10-15T07:31:12;13.40;99.90
13405;DHT22;6773;51.192;7.024;2022-10-15T07:33:38;13.40;99.90
13405;DHT22;6773;51.192;7.024;2022-10-15T07:36:09;13.40;99.90
13405;DHT22;6773;51.192;7.024;2022-10-15T07:38:37;13.40;99.90
13405;DHT22;6773;51.192;7.024;2022-10-15T07:41:05;13.40;99.90
13405;DHT22;6773;51.192;7.024;2022-10-15T07:43:32;13.40;99.90
13405;DHT22;6773;51.192;7.024;2022-10-15T07:45:57;13.50;99.90
13405;DHT22;6773;51.192;7.024;2022-10-15T07:48:23;13.50;99.90
13405;DHT22;6773;51.192;7.024;2022-10-15T07:50:57;13.50;99.90
13405;DHT22;6773;51.192;7.024;2022-10-15T07:53:23;13.60;99.90
13405;DHT22;6773;51.192;7.024;2022-10-15T07:55:49;13.60;99.90
13405;DHT22;6773;51.192;7.024;2022-10-15T07:58:14;13.70;99.90
13405;DHT22;6773;51.192;7.024;2022-10-15T08:00:40;13.70;99.90
13405;DHT22;6773;51.192;7.024;2022-10-15T08:05:33;13.70;99.90
13405;DHT22;6773;51.192;7.024;2022-10-15T08:07:58;13.80;99.90
13405;DHT22;6773;51.192;7.024;2022-10-15T08:12:50;13.90;99.90
13405;DHT22;6773;51.192;7.024;2022-10-15T08:15:16;14.00;99.90
13405;DHT22;6773;51.192;7.024;2022-10-15T08:17:42;14.00;99.90
13405;DHT22;6773;51.192;7.024;2022-10-15T08:20:08;14.10;99.90
13405;DHT22;6773;51.192;7.024;2022-10-15T08:22:34;14.10;99.90
13405;DHT22;6773;51.192;7.024;2022-10-15T08:25:00;14.20;99.90
13405;DHT22;6773;51.192;7.024;2022-10-15T08:27:26;14.30;99.90
13405;DHT22;6773;51.192;7.024;2022-10-15T08:29:51;14.40;99.90
13405;DHT22;6773;51.192;7.024;2022-10-15T08:32:17;14.50;99.90
13405;DHT22;6773;51.192;7.024;2022-10-15T08:34:42;14.60;99.90
13405;DHT22;6773;51.192;7.024;2022-10-15T08:37:08;14.60;99.90
13405;DHT22;6773;51.192;7.024;2022-10-15T08:39:34;14.70;99.90
13405;DHT22;6773;51.192;7.024;2022-10-15T08:42:03;14.80;99.90
13405;DHT22;6773;51.192;7.024;2022-10-15T08:44:33;14.80;99.90
13405;DHT22;6773;51.192;7.024;2022-10-15T08:47:12;14.80;99.90
13405;DHT22;6773;51.192;7.024;2022-10-15T08:49:49;14.90;99.90
13405;DHT22;6773;51.192;7.024;2022-10-15T08:54:59;15.20;99.90
13405;DHT22;6773;51.192;7.024;2022-10-15T08:57:57;15.20;99.90
13405;DHT22;6773;51.192;7.024;2022-10-15T09:08:37;15.30;99.90
13405;DHT22;6773;51.192;7.024;2022-10-15T09:11:12;15.40;99.90
13405;DHT22;6773;51.192;7.024;2022-10-15T09:13:41;15.40;99.90
13405;DHT22;6773;51.192;7.024;2022-10-15T09:18:43;15.40;99.90
13405;DHT22;6773;51.192;7.024;2022-10-15T09:21:12;15.40;99.90
13405;DHT22;6773;51.192;7.024;2022-10-15T09:23:38;15.30;99.90
13405;DHT22;6773;51.192;7.024;2022-10-15T09:29:01;15.40;99.90
13405;DHT22;6773;51.192;7.024;2022-10-15T09:31:40;15.50;99.90
13405;DHT22;6773;51.192;7.024;2022-10-15T09:34:18;15.40;99.90
13405;DHT22;6773;51.192;7.024;2022-10-15T09:36:53;15.40;99.90
13405;DHT22;6773;51.192;7.024;2022-10-15T09:39:42;15.30;99.90
13405;DHT22;6773;51.192;7.024;2022-10-15T09:42:23;15.30;99.90
13405;DHT22;6773;51.192;7.024;2022-10-15T09:44:50;15.30;99.90
13405;DHT22;6773;51.192;7.024;2022-10-15T09:47:31;15.30;99.90
13405;DHT22;6773;51.192;7.024;2022-10-15T09:49:56;15.40;99.90
13405;DHT22;6773;51.192;7.024;2022-10-15T09:57:47;15.70;99.90
13405;DHT22;6773;51.192;7.024;2022-10-15T10:00:15;15.90;99.90
13405;DHT22;6773;51.192;7.024;2022-10-15T10:02:41;15.80;99.90
13405;DHT22;6773;51.192;7.024;2022-10-15T10:05:29;15.90;99.90
13405;DHT22;6773;51.192;7.024;2022-10-15T10:10:41;16.00;99.90
13405;DHT22;6773;51.192;7.024;2022-10-15T10:13:59;16.10;99.90
13405;DHT22;6773;51.192;7.024;2022-10-15T10:16:09;16.20;99.90
13405;DHT22;6773;51.192;7.024;2022-10-15T10:18:35;16.30;99.90
13405;DHT22;6773;51.192;7.024;2022-10-15T10:21:19;16.30;99.90
13405;DHT22;6773;51.192;7.024;2022-10-15T10:23:45;16.20;99.90
13405;DHT22;6773;51.192;7.024;2022-10-15T10:26:11;16.20;99.90
13405;DHT22;6773;51.192;7.024;2022-10-15T10:28:49;16.10;99.90
13405;DHT22;6773;51.192;7.024;2022-10-15T10:31:16;16.00;99.90
13405;DHT22;6773;51.192;7.024;2022-10-15T10:33:47;15.90;99.90
13405;DHT22;6773;51.192;7.024;2022-10-15T10:39:27;15.80;99.90
13405;DHT22;6773;51.192;7.024;2022-10-15T10:42:00;15.80;99.90
13405;DHT22;6773;51.192;7.024;2022-10-15T10:44:37;15.90;99.90
13405;DHT22;6773;51.192;7.024;2022-10-15T10:49:37;15.90;99.90
13405;DHT22;6773;51.192;7.024;2022-10-15T10:52:04;15.90;99.90
13405;DHT22;6773;51.192;7.024;2022-10-15T10:54:31;15.90;99.90
13405;DHT22;6773;51.192;7.024;2022-10-15T10:56:58;15.80;99.90
13405;DHT22;6773;51.192;7.024;2022-10-15T10:59:34;15.90;99.90
13405;DHT22;6773;51.192;7.024;2022-10-15T11:02:01;15.80;99.90
13405;DHT22;6773;51.192;7.024;2022-10-15T11:04:32;15.80;99.90
13405;DHT22;6773;51.192;7.024;2022-10-15T11:07:20;15.90;99.90
13405;DHT22;6773;51.192;7.024;2022-10-15T11:10:02;15.90;99.90
13405;DHT22;6773;51.192;7.024;2022-10-15T11:15:58;16.00;99.90
13405;DHT22;6773;51.192;7.024;2022-10-15T11:21:26;16.10;99.90
13405;DHT22;6773;51.192;7.024;2022-10-15T11:29:52;16.20;99.90
13405;DHT22;6773;51.192;7.024;2022-10-15T11:46:12;16.30;99.90
13405;DHT22;6773;51.192;7.024;2022-10-15T11:49:19;16.30;99.90
13405;DHT22;6773;51.192;7.024;2022-10-15T11:54:35;16.40;99.90
13405;DHT22;6773;51.192;7.024;2022-10-15T11:57:03;16.50;99.90
13405;DHT22;6773;51.192;7.024;2022-10-15T12:02:37;16.50;99.90
13405;DHT22;6773;51.192;7.024;2022-10-15T12:05:17;16.60;99.90
13405;DHT22;6773;51.192;7.024;2022-10-15T12:07:48;16.60;99.90
13405;DHT22;6773;51.192;7.024;2022-10-15T12:13:23;16.70;99.90
13405;DHT22;6773;51.192;7.024;2022-10-15T12:16:03;16.70;99.90
13405;DHT22;6773;51.192;7.024;2022-10-15T12:18:44;16.70;99.90
13405;DHT22;6773;51.192;7.024;2022-10-15T12:24:00;16.70;99.90
13405;DHT22;6773;51.192;7.024;2022-10-15T12:26:33;16.70;99.90
13405;DHT22;6773;51.192;7.024;2022-10-15T12:29:03;16.90;99.90
13405;DHT22;6773;51.192;7.024;2022-10-15T12:31:49;16.90;99.90
13405;DHT22;6773;51.192;7.024;2022-10-15T12:34:40;16.90;99.90
13405;DHT22;6773;51.192;7.024;2022-10-15T12:37:16;16.90;99.90
13405;DHT22;6773;51.192;7.024;2022-10-15T12:39:43;17.00;99.90
13405;DHT22;6773;51.192;7.024;2022-10-15T12:42:24;17.10;99.90
13405;DHT22;6773;51.192;7.024;2022-10-15T12:44:50;17.10;99.90
13405;DHT22;6773;51.192;7.024;2022-10-15T12:47:49;17.10;99.90
13405;DHT22;6773;51.192;7.024;2022-10-15T12:50:26;17.20;99.90
13405;DHT22;6773;51.192;7.024;2022-10-15T12:53:00;17.20;99.90
13405;DHT22;6773;51.192;7.024;2022-10-15T12:57:54;17.40;99.90
13405;DHT22;6773;51.192;7.024;2022-10-15T13:00:36;17.50;99.90
13405;DHT22;6773;51.192;7.024;2022-10-15T13:03:32;17.50;99.90
13405;DHT22;6773;51.192;7.024;2022-10-15T13:09:48;17.60;99.90
13405;DHT22;6773;51.192;7.024;2022-10-15T13:12:24;17.60;99.90
13405;DHT22;6773;51.192;7.024;2022-10-15T13:15:00;17.70;99.90
13405;DHT22;6773;51.192;7.024;2022-10-15T13:17:28;17.80;99.90
13405;DHT22;6773;51.192;7.024;2022-10-15T13:20:06;17.70;99.90
13405;DHT22;6773;51.192;7.024;2022-10-15T13:22:34;17.80;99.90
13405;DHT22;6773;51.192;7.024;2022-10-15T13:25:00;17.70;99.90
13405;DHT22;6773;51.192;7.024;2022-10-15T13:27:35;17.70;99.90
13405;DHT22;6773;51.192;7.024;2022-10-15T13:30:05;17.80;99.90
13405;DHT22;6773;51.192;7.024;2022-10-15T13:32:37;17.80;99.90
13405;DHT22;6773;51.192;7.024;2022-10-15T13:35:12;17.70;99.90
13405;DHT22;6773;51.192;7.024;2022-10-15T13:37:42;17.90;99.90
13405;DHT22;6773;51.192;7.024;2022-10-15T13:40:20;17.80;99.90
13405;DHT22;6773;51.192;7.024;2022-10-15T13:43:03;17.90;99.90
13405;DHT22;6773;51.192;7.024;2022-10-15T13:45:31;18.00;99.90
13405;DHT22;6773;51.192;7.024;2022-10-15T13:47:57;18.10;99.90
13405;DHT22;6773;51.192;7.024;2022-10-15T13:50:30;18.10;99.90
13405;DHT22;6773;51.192;7.024;2022-10-15T13:52:58;18.20;99.90
13405;DHT22;6773;51.192;7.024;2022-10-15T13:55:30;18.30;99.90
13405;DHT22;6773;51.192;7.024;2022-10-15T14:01:05;18.40;99.90
13405;DHT22;6773;51.192;7.024;2022-10-15T14:03:33;18.40;99.90
13405;DHT22;6773;51.192;7.024;2022-10-15T14:06:21;18.40;99.90
13405;DHT22;6773;51.192;7.024;2022-10-15T14:08:51;18.40;99.90
13405;DHT22;6773;51.192;7.024;2022-10-15T14:11:17;18.40;99.90
13405;DHT22;6773;51.192;7.024;2022-10-15T14:16:29;18.50;99.90
13405;DHT22;6773;51.192;7.024;2022-10-15T14:19:08;18.50;99.90
13405;DHT22;6773;51.192;7.024;2022-10-15T14:21:36;18.50;99.90
13405;DHT22;6773;51.192;7.024;2022-10-15T14:24:13;18.40;99.90
13405;DHT22;6773;51.192;7.024;2022-10-15T14:26:40;18.30;99.90
13405;DHT22;6773;51.192;7.024;2022-10-15T14:31:48;18.40;99.90
13405;DHT22;6773;51.192;7.024;2022-10-15T14:37:45;18.50;99.90
13405;DHT22;6773;51.192;7.024;2022-10-15T14:39:47;18.50;99.90
13405;DHT22;6773;51.192;7.024;2022-10-15T14:42:26;18.50;99.90
13405;DHT22;6773;51.192;7.024;2022-10-15T14:44:55;18.50;99.90
13405;DHT22;6773;51.192;7.024;2022-10-15T14:47:25;18.50;99.90
13405;DHT22;6773;51.192;7.024;2022-10-15T14:49:56;18.40;99.90
13405;DHT22;6773;51.192;7.024;2022-10-15T14:52:24;18.50;99.90
13405;DHT22;6773;51.192;7.024;2022-10-15T14:57:48;18.40;99.90
13405;DHT22;6773;51.192;7.024;2022-10-15T15:00:28;18.40;99.90
13405;DHT22;6773;51.192;7.024;2022-10-15T15:02:56;18.40;99.90
13405;DHT22;6773;51.192;7.024;2022-10-15T15:05:24;18.30;99.90
13405;DHT22;6773;51.192;7.024;2022-10-15T15:07:51;18.30;99.90
13405;DHT22;6773;51.192;7.024;2022-10-15T15:10:17;18.30;99.90
13405;DHT22;6773;51.192;7.024;2022-10-15T15:12:52;18.30;99.90
13405;DHT22;6773;51.192;7.024;2022-10-15T15:15:20;18.30;99.90
13405;DHT22;6773;51.192;7.024;2022-10-15T15:17:49;18.20;99.90
13405;DHT22;6773;51.192;7.024;2022-10-15T15:20:17;18.10;99.90
13405;DHT22;6773;51.192;7.024;2022-10-15T15:22:47;18.00;99.90
13405;DHT22;6773;51.192;7.024;2022-10-15T15:25:23;17.90;99.90
13405;DHT22;6773;51.192;7.024;2022-10-15T15:27:51;17.90;99.90
13405;DHT22;6773;51.192;7.024;2022-10-15T15:30:19;17.90;99.90
13405;DHT22;6773;51.192;7.024;2022-10-15T15:32:46;17.70;99.90
13405;DHT22;6773;51.192;7.024;2022-10-15T15:35:25;17.50;99.90
13405;DHT22;6773;51.192;7.024;2022-10-15T15:37:53;17.20;99.90
13405;DHT22;6773;51.192;7.024;2022-10-15T15:40:18;17.10;99.90
13405;DHT22;6773;51.192;7.024;2022-10-15T15:42:44;17.00;99.90
13405;DHT22;6773;51.192;7.024;2022-10-15T15:45:21;17.00;99.90
13405;DHT22;6773;51.192;7.024;2022-10-15T15:47:47;16.90;99.90
13405;DHT22;6773;51.192;7.024;2022-10-15T15:50:13;16.90;99.90
13405;DHT22;6773;51.192;7.024;2022-10-15T15:52:39;16.80;99.90
13405;DHT22;6773;51.192;7.024;2022-10-15T15:55:05;16.70;99.90
13405;DHT22;6773;51.192;7.024;2022-10-15T15:57:31;16.60;99.90
13405;DHT22;6773;51.192;7.024;2022-10-15T15:59:57;16.60;99.90
13405;DHT22;6773;51.192;7.024;2022-10-15T16:02:22;16.60;99.90
13405;DHT22;6773;51.192;7.024;2022-10-15T16:07:14;16.40;99.90
13405;DHT22;6773;51.192;7.024;2022-10-15T16:09:39;16.40;99.90
13405;DHT22;6773;51.192;7.024;2022-10-15T16:12:05;16.40;99.90
13405;DHT22;6773;51.192;7.024;2022-10-15T16:14:31;16.30;99.90
13405;DHT22;6773;51.192;7.024;2022-10-15T16:16:57;16.30;99.90
13405;DHT22;6773;51.192;7.024;2022-10-15T16:19:25;16.20;99.90
13405;DHT22;6773;51.192;7.024;2022-10-15T16:21:50;16.20;99.90
13405;DHT22;6773;51.192;7.024;2022-10-15T16:24:18;16.20;99.90
13405;DHT22;6773;51.192;7.024;2022-10-15T16:26:44;16.10;99.90
13405;DHT22;6773;51.192;7.024;2022-10-15T16:29:09;16.10;99.90
13405;DHT22;6773;51.192;7.024;2022-10-15T16:31:35;16.10;99.90
13405;DHT22;6773;51.192;7.024;2022-10-15T16:34:03;16.10;99.90
13405;DHT22;6773;51.192;7.024;2022-10-15T16:36:30;16.00;99.90
13405;DHT22;6773;51.192;7.024;2022-10-15T16:38:55;16.00;99.90
13405;DHT22;6773;51.192;7.024;2022-10-15T16:41:21;15.90;99.90
13405;DHT22;6773;51.192;7.024;2022-10-15T16:43:48;15.90;99.90
13405;DHT22;6773;51.192;7.024;2022-10-15T16:46:15;15.90;99.90
13405;DHT22;6773;51.192;7.024;2022-10-15T16:48:43;15.90;99.90
13405;DHT22;6773;51.192;7.024;2022-10-15T16:51:12;15.90;99.90
13405;DHT22;6773;51.192;7.024;2022-10-15T16:53:41;15.90;99.90
13405;DHT22;6773;51.192;7.024;2022-10-15T16:56:41;15.80;99.90
13405;DHT22;6773;51.192;7.024;2022-10-15T16:59:02;15.80;99.90
13405;DHT22;6773;51.192;7.024;2022-10-15T17:01:28;15.80;99.90
13405;DHT22;6773;51.192;7.024;2022-10-15T17:03:56;15.80;99.90
13405;DHT22;6773;51.192;7.024;2022-10-15T17:06:24;15.70;99.90
13405;DHT22;6773;51.192;7.024;2022-10-15T17:08:52;15.70;99.90
13405;DHT22;6773;51.192;7.024;2022-10-15T17:11:20;15.70;99.90
13405;DHT22;6773;51.192;7.024;2022-10-15T17:13:47;15.70;99.90
13405;DHT22;6773;51.192;7.024;2022-10-15T17:16:19;15.70;99.90
13405;DHT22;6773;51.192;7.024;2022-10-15T17:18:46;15.70;99.90
13405;DHT22;6773;51.192;7.024;2022-10-15T17:21:22;15.60;99.90
13405;DHT22;6773;51.192;7.024;2022-10-15T17:23:54;15.60;99.90
13405;DHT22;6773;51.192;7.024;2022-10-15T17:26:23;15.60;99.90
13405;DHT22;6773;51.192;7.024;2022-10-15T17:28:50;15.50;99.90
13405;DHT22;6773;51.192;7.024;2022-10-15T17:31:21;15.50;99.90
13405;DHT22;6773;51.192;7.024;2022-10-15T17:33:59;15.60;99.90
13405;DHT22;6773;51.192;7.024;2022-10-15T17:36:26;15.50;99.90
13405;DHT22;6773;51.192;7.024;2022-10-15T17:38:55;15.50;99.90
13405;DHT22;6773;51.192;7.024;2022-10-15T17:41:23;15.50;99.90
13405;DHT22;6773;51.192;7.024;2022-10-15T17:43:50;15.50;99.90
13405;DHT22;6773;51.192;7.024;2022-10-15T17:46:18;15.50;99.90
13405;DHT22;6773;51.192;7.024;2022-10-15T17:48:47;15.40;99.90
13405;DHT22;6773;51.192;7.024;2022-10-15T17:51:17;15.40;99.90
13405;DHT22;6773;51.192;7.024;2022-10-15T17:53:43;15.40;99.90
13405;DHT22;6773;51.192;7.024;2022-10-15T17:56:18;15.40;99.90
13405;DHT22;6773;51.192;7.024;2022-10-15T17:58:44;15.40;99.90
13405;DHT22;6773;51.192;7.024;2022-10-15T18:01:30;15.40;99.90
13405;DHT22;6773;51.192;7.024;2022-10-15T18:03:55;15.30;99.90
13405;DHT22;6773;51.192;7.024;2022-10-15T18:06:22;15.30;99.90
13405;DHT22;6773;51.192;7.024;2022-10-15T18:08:49;15.30;99.90
13405;DHT22;6773;51.192;7.024;2022-10-15T18:11:33;15.30;99.90
13405;DHT22;6773;51.192;7.024;2022-10-15T18:18:53;15.20;99.90
13405;DHT22;6773;51.192;7.024;2022-10-15T18:21:20;15.20;99.90
13405;DHT22;6773;51.192;7.024;2022-10-15T18:23:47;15.10;99.90
13405;DHT22;6773;51.192;7.024;2022-10-15T18:26:18;15.10;99.90
13405;DHT22;6773;51.192;7.024;2022-10-15T18:31:13;15.10;99.90
13405;DHT22;6773;51.192;7.024;2022-10-15T18:33:43;15.00;99.90
13405;DHT22;6773;51.192;7.024;2022-10-15T18:36:15;15.00;99.90
13405;DHT22;6773;51.192;7.024;2022-10-15T18:38:42;15.00;99.90
13405;DHT22;6773;51.192;7.024;2022-10-15T18:41:12;14.90;99.90
13405;DHT22;6773;51.192;7.024;2022-10-15T18:46:04;14.80;99.90
13405;DHT22;6773;51.192;7.024;2022-10-15T18:48:30;14.80;99.90